Time;durP1;ratioP1;P1;durP2;ratioP2;P2;SDS_P1;SDS_P2;PMS_P1;PMS_P2;Temp;Humidity;BMP_temperature;BMP_pressure;BME280_temperature;BME280_humidity;BME280_pressure;Samples;Min_cycle;Max_cycle;Signal;HPM_P1;HPM_P2
2021/03/02 00:01:19;;;;;;;;;;;;;;;;;;5061131;28;19912;-78
2021/03/02 00:03:44;;;;;;;;;;;;;;;;;;5067797;28;19905;-78
2021/03/02 00:06:11;;;;;;;;;;;;;;;;;;5062420;28;19916;-77
2021/03/02 00:08:36;;;;;;;;;;;;;;;;;;5052790;28;19935;-77
2021/03/02 00:11:02;;;;;;;;;;;;;;;;;;5052599;28;20286;-78
2021/03/02 00:13:28;;;;;;;;;;;;;;;;;;5052945;28;20585;-78
2021/03/02 00:15:54;;;;;;;;;;;;;;;;;;5052150;28;19905;-78
2021/03/02 00:18:20;;;;;;;;;;;;;;;;;;5052510;28;19905;-78
2021/03/02 00:20:46;;;;;;;;;;;;;;;;;;5052320;28;20350;-77
2021/03/02 00:23:12;;;;;;;;;;;;;;;;;;5052472;28;19913;-78
2021/03/02 00:25:38;;;;;;;;;;;;;;;;;;5051946;28;19909;-78
2021/03/02 00:28:04;;;;;;;;;;;;;;;;;;5052354;28;19947;-78
2021/03/02 00:30:30;;;;;;;;;;;;;;;;;;5051923;28;20243;-78
2021/03/02 00:32:55;;;;;;;;;;;;;;;;;;5052287;28;19901;-78
2021/03/02 00:35:21;;;;;;;;;;;;;;;;;;5051691;28;19948;-79
2021/03/02 00:37:48;;;;;;;;;;;;;;;;;;5052090;28;19901;-78
2021/03/02 00:40:14;;;;;;;;;;;;;;;;;;5051640;28;19904;-78
2021/03/02 00:42:40;;;;;;;;;;;;;;;;;;5051900;28;19920;-79
2021/03/02 00:45:06;;;;;;;;;;;;;;;;;;5051477;28;19904;-78
2021/03/02 00:47:31;;;;;;;;;;;;;;;;;;5051840;28;19904;-78
2021/03/02 00:49:57;;;;;;;;;;;;;;;;;;5051595;28;19905;-78
2021/03/02 00:52:23;;;;;;;;;;;;;;;;;;5051751;28;19909;-78
2021/03/02 00:54:49;;;;;;;;;;;;;;;;;;5049393;28;19954;-78
2021/03/02 00:57:15;;;;;;;;;;;;;;;;;;5041944;28;19905;-78
2021/03/02 00:59:41;;;;;;;;;;;;;;;;;;5037565;28;19920;-78
2021/03/02 01:02:07;;;;;;;;;;;;;;;;;;5031403;28;20370;-79
2021/03/02 01:04:33;;;;;;;;;;;;;;;;;;5035605;28;19905;-79
2021/03/02 01:06:59;;;;;;;;;;;;;;;;;;5035499;28;19916;-79
2021/03/02 01:09:25;;;;;;;;;;;;;;;;;;5043436;28;20289;-78
2021/03/02 01:11:50;;;;;;;;;;;;;;;;;;5043500;28;19908;-79
2021/03/02 01:14:16;;;;;;;;;;;;;;;;;;5043164;28;19941;-79
2021/03/02 01:16:42;;;;;;;;;;;;;;;;;;5052978;28;20003;-78
2021/03/02 01:19:08;;;;;;;;;;;;;;;;;;5053207;28;19911;-79
2021/03/02 01:21:34;;;;;;;;;;;;;;;;;;5053949;28;19909;-79
2021/03/02 01:24:00;;;;;;;;;;;;;;;;;;5053925;28;19931;-78
2021/03/02 01:26:26;;;;;;;;;;;;;;;;;;5051982;28;19907;-78
2021/03/02 01:28:52;;;;;;;;;;;;;;;;;;5055117;28;19905;-78
2021/03/02 01:31:18;;;;;;;;;;;;;;;;;;5052388;28;19901;-78
2021/03/02 01:33:43;;;;;;;;;;;;;;;;;;5051021;28;19912;-77
2021/03/02 01:36:09;;;;;;;;;;;;;;;;;;5050851;28;19901;-78
2021/03/02 01:38:36;;;;;;;;;;;;;;;;;;5050944;28;20276;-78
2021/03/02 01:41:02;;;;;;;;;;;;;;;;;;5051048;28;19944;-78
2021/03/02 01:43:27;;;;;;;;;;;;;;;;;;5050992;28;19951;-78
2021/03/02 01:45:53;;;;;;;;;;;;;;;;;;5043612;28;19996;-78
2021/03/02 01:48:19;;;;;;;;;;;;;;;;;;5062798;28;20001;-78
2021/03/02 01:50:45;;;;;;;;;;;;;;;;;;5030813;28;20446;-78
2021/03/02 01:53:11;;;;;;;;;;;;;;;;;;5032154;28;19909;-78
2021/03/02 01:55:37;;;;;;;;;;;;;;;;;;5050227;28;19911;-78
2021/03/02 01:58:03;;;;;;;;;;;;;;;;;;5050748;28;20258;-78
2021/03/02 02:00:29;;;;;;;;;;;;;;;;;;5050677;28;19905;-77
2021/03/02 02:02:55;;;;;;;;;;;;;;;;;;5052916;28;19962;-78
2021/03/02 02:05:21;;;;;;;;;;;;;;;;;;5054451;28;20004;-78
2021/03/02 02:07:47;;;;;;;;;;;;;;;;;;5054818;28;20269;-78
2021/03/02 02:10:12;;;;;;;;;;;;;;;;;;5045619;28;19905;-78
2021/03/02 02:12:38;;;;;;;;;;;;;;;;;;5054771;28;19920;-78
2021/03/02 02:15:04;;;;;;;;;;;;;;;;;;5054167;28;19940;-78
2021/03/02 02:17:30;;;;;;;;;;;;;;;;;;5054452;28;20327;-78
2021/03/02 02:19:56;;;;;;;;;;;;;;;;;;5054345;28;19904;-78
2021/03/02 02:22:22;;;;;;;;;;;;;;;;;;5054365;28;20289;-78
2021/03/02 02:24:48;;;;;;;;;;;;;;;;;;5054153;28;19912;-78
2021/03/02 02:27:14;;;;;;;;;;;;;;;;;;5054673;28;19912;-78
2021/03/02 02:29:40;;;;;;;;;;;;;;;;;;5054355;28;19909;-78
2021/03/02 02:32:06;;;;;;;;;;;;;;;;;;5054491;28;19958;-78
2021/03/02 02:34:31;;;;;;;;;;;;;;;;;;5054092;28;19909;-78
2021/03/02 02:36:57;;;;;;;;;;;;;;;;;;5054586;28;19905;-78
2021/03/02 02:39:23;;;;;;;;;;;;;;;;;;5054313;28;19905;-78
2021/03/02 02:41:49;;;;;;;;;;;;;;;;;;5054560;28;20015;-78
2021/03/02 02:44:15;;;;;;;;;;;5.70;99.90;;;;;;5053916;28;20272;-78
2021/03/02 02:46:42;;;;;;;;;;;2.30;99.90;;;;;;5054244;28;19915;-78
2021/03/02 02:49:10;;;;;;;;;;;2.10;99.90;;;;;;5054090;28;19904;-78
2021/03/02 02:51:36;;;;;;;;;;;2.00;99.90;;;;;;5054318;28;19908;-78
2021/03/02 02:54:02;;;;;;;;;;;2.00;99.90;;;;;;5054098;28;20282;-78
2021/03/02 02:56:27;;;;;;;;;;;;;;;;;;5055015;28;19911;-78
2021/03/02 02:58:53;;;;;;;;;;;;;;;;;;5054713;28;19950;-78
2021/03/02 03:01:19;;;;;;;;;;;;;;;;;;5055793;28;19905;-79
2021/03/02 03:03:46;;;;;;;;;;;;;;;;;;5063767;28;19909;-78
2021/03/02 03:06:11;;;;;;;;;;;;;;;;;;5074754;28;19908;-79
2021/03/02 03:08:37;;;;;;;;;;;;;;;;;;5067657;28;19911;-78
2021/03/02 03:11:03;;;;;;;;;;;;;;;;;;5067461;28;19905;-78
2021/03/02 03:13:29;;;;;;;;;;;;;;;;;;5053470;28;19905;-77
2021/03/02 03:15:55;;;;;;;;;;;;;;;;;;5054057;28;19905;-77
2021/03/02 03:18:21;;;;;;;;;;;;;;;;;;5054027;28;20116;-78
2021/03/02 03:20:48;;;;;;;;;;;;;;;;;;5053460;28;19905;-78
2021/03/02 03:23:14;;;;;;;;;;;;;;;;;;5053393;28;19913;-78
2021/03/02 03:25:40;;;;;;;;;;;;;;;;;;5052949;28;19904;-77
2021/03/02 03:28:06;;;;;;;;;;;;;;;;;;5053325;28;19985;-78
2021/03/02 03:30:32;;;;;;;;;;;;;;;;;;5053069;28;19905;-78
2021/03/02 03:32:58;;;;;;;;;;;;;;;;;;5053430;28;19904;-78
2021/03/02 03:35:24;;;;;;;;;;;;;;;;;;5052997;28;19979;-78
2021/03/02 03:37:50;;;;;;;;;;;;;;;;;;5053076;28;19905;-78
2021/03/02 03:40:16;;;;;;;;;;;;;;;;;;5053279;28;19912;-78
2021/03/02 03:42:42;;;;;;;;;;;;;;;;;;5053131;28;19908;-78
2021/03/02 03:45:08;;;;;;;;;;;;;;;;;;5052480;28;19905;-78
2021/03/02 03:47:34;;;;;;;;;;;;;;;;;;5052737;28;19952;-78
2021/03/02 03:49:59;;;;;;;;;;;;;;;;;;5052754;28;19911;-78
2021/03/02 03:52:25;;;;;;;;;;;;;;;;;;5052627;28;19904;-78
2021/03/02 03:54:51;;;;;;;;;;;;;;;;;;5052322;28;19931;-77
2021/03/02 03:57:17;;;;;;;;;;;;;;;;;;5052393;28;20378;-78
2021/03/02 03:59:43;;;;;;;;;;;;;;;;;;5052313;28;19957;-78
2021/03/02 04:02:09;;;;;;;;;;;;;;;;;;5052545;28;19908;-78
2021/03/02 04:04:35;;;;;;;;;;;;;;;;;;5052285;28;19904;-78
2021/03/02 04:07:01;;;;;;;;;;;;;;;;;;5052832;28;19908;-78
2021/03/02 04:09:27;;;;;;;;;;;;;;;;;;5054359;28;19905;-78
2021/03/02 04:11:53;;;;;;;;;;;;;;;;;;5058235;28;19911;-78
2021/03/02 04:14:18;;;;;;;;;;;;;;;;;;5056057;28;19904;-78
2021/03/02 04:16:44;;;;;;;;;;;;;;;;;;5052547;28;19904;-78
2021/03/02 04:19:10;;;;;;;;;;;;;;;;;;5052438;28;19927;-78
2021/03/02 04:21:36;;;;;;;;;;;;;;;;;;5052269;28;19908;-78
2021/03/02 04:24:02;;;;;;;;;;;;;;;;;;5051701;28;20329;-78
2021/03/02 04:26:28;;;;;;;;;;;;;;;;;;5052003;28;19963;-78
2021/03/02 04:28:54;;;;;;;;;;;;;;;;;;5051625;28;19960;-78
2021/03/02 04:31:20;;;;;;;;;;;;;;;;;;5052194;28;19905;-78
2021/03/02 04:33:46;;;;;;;;;;;;;;;;;;5052203;28;20353;-78
2021/03/02 04:36:12;;;;;;;;;;;;;;;;;;5051960;28;19915;-78
2021/03/02 04:38:37;;;;;;;;;;;;;;;;;;5051777;28;19958;-78
2021/03/02 04:41:03;;;;;;;;;;;;;;;;;;5052006;28;20223;-78
2021/03/02 04:43:29;;;;;;;;;;;;;;;;;;5053505;28;19909;-78
2021/03/02 04:45:55;;;;;;;;;;;;;;;;;;5051550;28;19905;-78
2021/03/02 04:48:21;;;;;;;;;;;;;;;;;;5051794;28;20289;-78
2021/03/02 04:50:47;;;;;;;;;;;;;;;;;;5051654;28;19905;-78
2021/03/02 04:53:13;;;;;;;;;;;;;;;;;;5051763;28;19971;-78
2021/03/02 04:55:39;;;;;;;;;;;;;;;;;;5051188;28;19905;-78
2021/03/02 04:58:05;;;;;;;;;;;;;;;;;;5051210;28;19963;-78
2021/03/02 05:00:30;;;;;;;;;;;;;;;;;;5051358;28;19912;-78
2021/03/02 05:02:56;;;;;;;;;;;;;;;;;;5051555;28;20285;-78
2021/03/02 05:05:22;;;;;;;;;;;;;;;;;;5050930;28;19904;-78
2021/03/02 05:07:48;;;;;;;;;;;;;;;;;;5051585;28;19909;-78
2021/03/02 05:10:14;;;;;;;;;;;;;;;;;;5051267;28;19927;-78
2021/03/02 05:12:40;;;;;;;;;;;;;;;;;;5051383;28;19904;-78
2021/03/02 05:15:06;;;;;;;;;;;;;;;;;;5050972;28;20055;-78
2021/03/02 05:17:32;;;;;;;;;;;;;;;;;;5040058;28;19909;-78
2021/03/02 05:19:58;;;;;;;;;;;;;;;;;;5037797;28;20451;-78
2021/03/02 05:22:24;;;;;;;;;;;;;;;;;;5039264;28;20055;-78
2021/03/02 05:24:49;;;;;;;;;;;;;;;;;;5030842;28;20015;-78
2021/03/02 05:27:15;;;;;;;;;;;;;;;;;;5030647;28;20281;-78
2021/03/02 05:29:41;;;;;;;;;;;;;;;;;;5031060;28;19934;-78
2021/03/02 05:32:07;;;;;;;;;;;;;;;;;;5031317;28;19916;-78
2021/03/02 05:34:33;;;;;;;;;;;;;;;;;;5031075;28;19928;-78
2021/03/02 05:36:59;;;;;;;;;;;;;;;;;;5030949;28;20380;-78
2021/03/02 05:39:25;;;;;;;;;;;;;;;;;;5031329;28;20578;-78
2021/03/02 05:41:51;;;;;;;;;;;;;;;;;;5030480;28;19909;-78
2021/03/02 05:44:17;;;;;;;;;;;;;;;;;;5035114;28;19988;-78
2021/03/02 05:46:45;;;;;;;;;;;;;;;;;;5046151;28;20437;-79
2021/03/02 05:49:11;;;;;;;;;;;;;;;;;;5035665;28;19909;-78
2021/03/02 05:51:37;;;;;;;;;;;;;;;;;;5030565;28;20293;-78
2021/03/02 05:54:03;;;;;;;;;;;;;;;;;;5039630;28;19909;-78
2021/03/02 05:56:29;;;;;;;;;;;;;;;;;;5040700;28;20006;-78
2021/03/02 05:58:55;;;;;;;;;;;;;;;;;;5029519;28;20595;-78
2021/03/02 06:01:21;;;;;;;;;;;;;;;;;;5029263;28;20432;-78
2021/03/02 06:03:47;;;;;;;;;;;;;;;;;;5029301;28;20346;-79
2021/03/02 06:06:13;;;;;;;;;;;;;;;;;;5030987;28;19901;-79
2021/03/02 06:08:39;;;;;;;;;;;;;;;;;;5045359;28;19905;-77
2021/03/02 06:11:04;;;;;;;;;;;;;;;;;;5048375;28;19920;-79
2021/03/02 06:13:30;;;;;;;;;;;;;;;;;;5057154;28;19908;-78
2021/03/02 06:15:56;;;;;;;;;;;;;;;;;;5035299;28;20359;-78
2021/03/02 06:18:22;;;;;;;;;;;;;;;;;;5037765;28;20606;-78
2021/03/02 06:20:48;;;;;;;;;;;;;;;;;;5025702;28;19964;-78
2021/03/02 06:23:14;;;;;;;;;;;;;;;;;;5028646;28;20006;-78
2021/03/02 06:25:40;;;;;;;;;;;;;;;;;;5034284;28;19909;-78
2021/03/02 06:28:06;;;;;;;;;;;;;;;;;;5022274;28;20378;-78
2021/03/02 06:30:32;;;;;;;;;;;;;;;;;;5029419;28;19916;-78
2021/03/02 06:32:58;;;;;;;;;;;;;;;;;;5027864;28;19916;-78
2021/03/02 06:35:24;;;;;;;;;;;;;;;;;;5027741;28;19913;-78
2021/03/02 06:37:49;;;;;;;;;;;;;;;;;;5027833;28;19909;-79
2021/03/02 06:40:15;;;;;;;;;;;;;;;;;;5027590;28;19905;-78
2021/03/02 06:42:41;;;;;;;;;;;;;;;;;;5028173;28;19956;-78
2021/03/02 06:45:07;;;;;;;;;;;;;;;;;;5027566;28;19905;-78
2021/03/02 06:47:33;;;;;;;;;;;;;;;;;;5028173;28;19905;-78
2021/03/02 06:49:59;;;;;;;;;;;;;;;;;;5031432;28;19930;-78
2021/03/02 06:52:25;;;;;;;;;;;;;;;;;;5032164;28;19967;-78
2021/03/02 06:54:51;;;;;;;;;;;;;;;;;;5032288;28;20240;-78
2021/03/02 06:57:17;;;;;;;;;;;;;;;;;;5031007;28;19912;-78
2021/03/02 06:59:43;;;;;;;;;;;;;;;;;;5037799;28;19909;-78
2021/03/02 07:02:09;;;;;;;;;;;;;;;;;;5043994;28;20362;-78
2021/03/02 07:04:36;;;;;;;;;;;;;;;;;;5047731;28;19940;-78
2021/03/02 07:07:07;;;;;;;;;;;;;;;;;;5033036;28;19917;-79
2021/03/02 07:09:34;;;;;;;;;;;;;;;;;;5033322;28;19942;-78
2021/03/02 07:11:59;;;;;;;;;;;;;;;;;;5032712;28;19909;-78
2021/03/02 07:14:27;;;;;;;;;;;;;;;;;;5038879;28;19915;-78
2021/03/02 07:16:53;;;;;;;;;;;;;;;;;;5047430;28;20032;-79
2021/03/02 07:19:19;;;;;;;;;;;;;;;;;;5051662;28;19991;-79
2021/03/02 07:21:45;;;;;;;;;;;;;;;;;;5025496;28;19916;-79
2021/03/02 07:24:12;;;;;;;;;;;;;;;;;;5031082;28;19979;-79
2021/03/02 07:26:38;;;;;;;;;;;;;;;;;;5031446;28;19913;-78
2021/03/02 07:29:04;;;;;;;12.73;5.82;;;;;;;;;;5028395;28;19913;-79
2021/03/02 07:31:31;;;;;;;11.73;4.67;;;;;;;;;;5029225;28;20021;-79
2021/03/02 07:33:57;;;;;;;8.93;4.88;;;;;;;;;;5029813;28;20021;-79
2021/03/02 07:36:23;;;;;;;9.88;4.40;;;;;;;;;;5028447;28;20502;-79
2021/03/02 07:38:49;;;;;;;;;;;;;;;;;;5027692;28;20033;-79
2021/03/02 07:41:33;;;;;;;10.32;5.55;;;;;;;;;;5027164;28;19906;-80
2021/03/02 07:43:59;;;;;;;10.05;5.07;;;;;;;;;;5027088;28;20026;-80
2021/03/02 07:46:40;;;;;;;11.10;4.45;;;;;;;;;;5030833;28;20116;-80
2021/03/02 07:49:25;;;;;;;10.30;4.78;;;;;;;;;;5026538;28;20422;-79
2021/03/02 07:51:57;;;;;;;8.68;4.50;;;;;;;;;;5031126;28;20132;-79
2021/03/02 07:54:24;;;;;;;8.05;4.10;;;;;;;;;;5030902;28;20383;-79
2021/03/02 07:56:50;;;;;;;9.55;5.05;;;;;;;;;;5030018;28;20120;-78
2021/03/02 07:59:17;;;;;;;7.45;4.35;;;;;;;;;;5029569;28;20048;-79
2021/03/02 08:01:43;;;;;;;10.15;4.50;;;;;;;;;;5030016;28;20376;-80
2021/03/02 08:04:16;;;;;;;7.63;4.82;;;;;;;;;;5031685;28;20105;-81
2021/03/02 08:06:50;;;;;;;7.13;4.53;;;;;;;;;;5013642;28;20069;-81
2021/03/02 08:09:22;;;;;;;5.55;3.97;;;;;;;;;;5012899;28;20021;-81
2021/03/02 08:11:54;;;;;;;9.27;4.85;;;;;;;;;;5022682;28;20030;-80
2021/03/02 08:14:27;;;;;;;6.72;4.55;;;;;;;;;;5017868;28;20059;-80
2021/03/02 08:17:06;;;;;;;7.32;4.30;;;;;;;;;;5014808;28;20109;-82
2021/03/02 08:19:48;;;;;;;5.93;3.58;;;;;;;;;;5020576;28;20394;-81
2021/03/02 08:22:20;;;;;;;8.15;4.80;;;;;;;;;;5019389;28;20026;-81
2021/03/02 08:24:53;;;;;;;6.50;4.22;;;;;;;;;;5031948;28;20021;-81
2021/03/02 08:27:38;;;;;;;6.72;3.97;;;;;;;;;;5037898;28;20037;-81
2021/03/02 08:30:05;;;;;;;8.52;5.30;;;;;;;;;;5023024;28;20038;-80
2021/03/02 08:32:31;;;;;;;8.32;4.25;;;;;;;;;;5033042;28;20201;-82
2021/03/02 08:35:02;;;;;;;7.70;4.77;;;;;;;;;;5012020;28;20040;-80
2021/03/02 08:37:47;;;;;;;7.05;4.63;;;;;;;;;;5015719;28;20024;-80
2021/03/02 08:40:15;;;;;;;8.20;4.85;;;;;;;;;;5030846;28;20075;-81
2021/03/02 08:43:00;;;;;;;8.15;5.38;;;;;;;;;;5030494;28;20029;-81
2021/03/02 08:45:26;;;;;;;8.23;5.53;;;;;;;;;;5031246;28;20032;-80
2021/03/02 08:47:52;;;;;;;10.32;5.18;;;;;;;;;;5038016;28;20030;-80
2021/03/02 08:50:33;;;;;;;7.75;5.25;;;;;;;;;;5042744;28;20076;-78
2021/03/02 08:52:59;;;;;;;8.98;5.70;;;;;;;;;;5042316;28;20041;-80
2021/03/02 08:55:36;;;;;;;8.38;5.45;;;;;;;;;;5036755;28;20022;-80
2021/03/02 08:58:03;;;;;;;8.32;5.88;;;;;;;;;;5036749;28;20033;-81
2021/03/02 09:00:29;;;;;;;7.55;4.82;;;;;;;;;;5035713;28;20036;-80
2021/03/02 09:02:55;;;;;;;6.93;4.43;;;;;;;;;;5037196;28;20033;-80
2021/03/02 09:05:21;;;;;;;7.90;5.22;;;;;;;;;;5035984;28;20486;-79
2021/03/02 09:08:08;;;;;;;8.50;5.63;;;;;;;;;;5036998;28;20037;-80
2021/03/02 09:10:35;;;;;;;9.20;5.65;;;;;;;;;;5036425;28;20097;-80
2021/03/02 09:13:05;;;;;;;8.45;5.10;;;;;;;;;;5035659;28;20274;-80
2021/03/02 09:15:39;;;;;;;9.05;5.30;;;;;;;;;;5037685;28;20437;-79
2021/03/02 09:18:18;;;;;;;8.70;5.25;;;;;;;;;;5038828;28;20402;-82
2021/03/02 09:20:51;;;;;;;6.63;4.32;;;;;;;;;;5036322;28;20032;-81
2021/03/02 09:23:17;;;;;;;8.40;4.95;;;;;;;;;;5032316;28;20025;-79
2021/03/02 09:25:44;;;;;;;7.28;4.75;;;;;;;;;;5039288;28;20025;-79
2021/03/02 09:28:17;;;;;;;8.18;5.18;;;2.00;99.90;;;;;;5039864;28;20033;-79
2021/03/02 09:30:43;;;;;;;;;;;23.60;45.60;;;;;;5038860;28;20025;-81
2021/03/02 09:33:13;;;;;;;8.10;4.60;;;23.30;45.30;;;;;;5037811;28;20057;-80
2021/03/02 09:35:40;;;;;;;11.40;6.28;;;23.60;45.90;;;;;;5035223;28;20557;-80
2021/03/02 09:38:06;;;;;;;7.20;5.07;;;25.20;45.40;;;;;;5035074;28;20048;-80
2021/03/02 09:40:43;;;;;;;8.57;5.18;;;24.10;44.70;;;;;;5035632;28;20517;-78
2021/03/02 09:43:09;;;;;;;;;;;23.30;45.50;;;;;;5040467;28;20083;-80
2021/03/02 09:45:35;;;;;;;8.18;5.70;;;24.40;44.50;;;;;;5042137;28;19905;-80
2021/03/02 09:48:08;;;;;;;10.53;5.27;;;24.30;44.40;;;;;;5051293;28;20033;-80
2021/03/02 09:50:39;;;;;;;9.20;5.07;;;22.90;45.60;;;;;;5050668;28;20271;-78
2021/03/02 09:53:16;;;;;;;8.02;5.07;;;24.30;45.50;;;;;;5050754;28;20029;-78
2021/03/02 09:55:47;;;;;;;7.68;4.68;;;25.10;43.00;;;;;;5048903;28;20025;-78
2021/03/02 09:58:17;;;;;;;6.10;4.78;;;24.60;44.00;;;;;;5048635;28;20037;-79
2021/03/02 10:00:46;;;;;;;7.13;4.65;;;24.20;43.00;;;;;;5035638;28;20072;-80
2021/03/02 10:03:22;;;;;;;9.50;5.15;;;24.90;43.10;;;;;;5029583;28;20087;-80
2021/03/02 10:05:59;;;;;;;7.38;4.65;;;25.70;42.60;;;;;;5030230;28;20040;-79
2021/03/02 10:08:35;;;;;;;8.13;5.30;;;26.10;42.00;;;;;;5029133;28;20040;-80
2021/03/02 10:11:01;;;;;;;;;;;24.60;42.60;;;;;;5011987;28;20029;-79
2021/03/02 10:13:46;;;;;;;7.35;5.05;;;23.60;44.60;;;;;;5027042;28;19991;-79
2021/03/02 10:16:22;;;;;;;10.38;4.80;;;24.20;45.20;;;;;;5012290;28;20034;-81
2021/03/02 10:19:32;;;;;;;7.22;5.15;;;24.90;42.80;;;;;;5023732;28;20032;-79
2021/03/02 10:22:01;;;;;;;7.25;4.88;;;27.10;40.50;;;;;;5018635;28;20034;-79
2021/03/02 10:24:28;;;;;;;8.55;5.32;;;26.50;42.40;;;;;;5033009;28;20022;-79
2021/03/02 10:26:59;;;;;;;7.38;4.80;;;26.10;42.80;;;;;;5035266;28;20033;-78
2021/03/02 10:29:26;;;;;;;7.32;5.10;;;26.40;41.20;;;;;;5016208;28;20037;-79
2021/03/02 10:31:52;;;;;;;7.43;4.68;;;26.60;41.90;;;;;;5014182;28;20026;-79
2021/03/02 10:34:19;;;;;;;6.97;5.20;;;26.60;41.40;;;;;;5029775;28;20042;-79
2021/03/02 10:36:51;;;;;;;9.73;4.97;;;26.20;41.10;;;;;;5029461;28;20037;-79
2021/03/02 10:39:17;;;;;;;7.00;4.60;;;24.90;41.70;;;;;;5031483;28;20018;-79
2021/03/02 10:41:44;;;;;;;9.37;5.37;;;25.10;43.20;;;;;;5033234;28;20422;-80
2021/03/02 10:44:11;;;;;;;7.80;5.00;;;25.10;42.50;;;;;;5034016;28;20550;-79
2021/03/02 10:46:38;;;;;;;8.27;4.63;;;25.50;43.00;;;;;;5038018;28;20373;-79
2021/03/02 10:49:04;;;;;;;7.43;5.18;;;25.30;42.90;;;;;;5037791;28;20022;-80
2021/03/02 10:51:31;;;;;;;8.23;5.32;;;26.00;42.90;;;;;;5036861;28;20520;-79
2021/03/02 10:53:57;;;;;;;8.65;4.82;;;24.30;42.80;;;;;;5035979;28;20037;-79
2021/03/02 10:56:24;;;;;;;8.40;5.60;;;23.60;45.40;;;;;;5036256;28;20025;-79
2021/03/02 10:58:50;;;;;;;8.82;5.25;;;23.60;45.00;;;;;;5034300;28;20143;-79
2021/03/02 11:01:17;;;;;;;8.75;5.63;;;23.50;44.50;;;;;;5035826;28;20029;-79
2021/03/02 11:03:43;;;;;;;8.30;5.68;;;24.40;43.30;;;;;;5034623;28;20021;-79
2021/03/02 11:06:14;;;;;;;7.10;4.70;;;24.10;44.80;;;;;;5034464;28;20044;-79
2021/03/02 11:08:41;;;;;;;8.80;5.30;;;23.00;45.30;;;;;;5033952;28;20021;-78
2021/03/02 11:11:06;;;;;;;6.88;5.57;;;22.60;45.90;;;;;;5035858;28;20025;-80
2021/03/02 11:13:32;;;;;;;9.30;5.23;;;;;;;;;;5037949;28;20093;-79
2021/03/02 11:15:58;;;;;;;9.95;5.82;;;;;;;;;;5052549;28;20049;-77
2021/03/02 11:18:25;;;;;;;13.47;6.30;;;;;;;;;;5054961;28;20127;-78
2021/03/02 11:20:51;;;;;;;;;;;;;;;;;;5058452;28;20290;-80
2021/03/02 11:23:17;;;;;;;;;;;;;;;;;;5052509;28;19905;-80
2021/03/02 11:25:43;;;;;;;;;;;;;;;;;;5053178;28;19905;-80
2021/03/02 11:28:09;;;;;;;;;;;;;;;;;;5054778;28;19905;-79
2021/03/02 11:30:34;;;;;;;;;;;;;;;;;;5054138;28;20314;-80
2021/03/02 11:33:00;;;;;;;;;;;;;;;;;;5054791;28;19916;-79
2021/03/02 11:35:26;;;;;;;;;;;;;;;;;;5054303;28;19905;-81
2021/03/02 11:37:52;;;;;;;;;;;;;;;;;;5055430;28;19927;-79
2021/03/02 11:40:18;;;;;;;;;;;;;;;;;;5053832;28;20517;-80
2021/03/02 11:42:44;;;;;;;;;;;;;;;;;;5058311;28;19905;-81
2021/03/02 11:45:10;;;;;;;;;;;;;;;;;;5056715;28;19909;-79
2021/03/02 11:47:36;;;;;;;;;;;;;;;;;;5048741;28;20011;-81
2021/03/02 11:50:02;;;;;;;;;;;;;;;;;;5044565;28;20019;-79
2021/03/02 11:52:28;;;;;;;;;;;;;;;;;;5052466;28;20421;-79
2021/03/02 11:54:53;;;;;;;;;;;;;;;;;;5052565;28;19911;-79
2021/03/02 11:57:19;;;;;;;;;;;;;;;;;;5034010;28;19924;-79
2021/03/02 11:59:45;;;;;;;;;;;;;;;;;;5036618;28;20354;-81
2021/03/02 12:02:11;;;;;;;;;;;;;;;;;;5036411;28;19948;-79
2021/03/02 12:04:37;;;;;;;;;;;;;;;;;;5035869;28;19905;-81
2021/03/02 12:07:03;;;;;;;;;;;;;;;;;;5038337;28;19901;-82
2021/03/02 12:09:29;;;;;;;10.10;5.18;;;;;;;;;;5024390;28;19916;-81
2021/03/02 12:11:55;;;;;;;7.35;4.97;;;;;;;;;;5016430;28;20437;-79
2021/03/02 12:14:21;;;;;;;10.65;4.88;;;;;;;;;;5016550;28;20030;-81
2021/03/02 12:16:47;;;;;;;7.05;4.85;;;;;;;;;;5019126;28;20108;-82
2021/03/02 12:19:13;;;;;;;9.40;5.07;;;;;;;;;;5018057;28;20033;-81
2021/03/02 12:21:39;;;;;;;8.48;5.38;;;;;;;;;;5019054;28;20026;-81
2021/03/02 12:24:06;;;;;;;10.27;5.65;;;;;;;;;;5018557;28;20045;-82
2021/03/02 12:26:32;;;;;;;9.77;5.43;;;;;;;;;;5019870;28;20037;-82
2021/03/02 12:28:58;;;;;;;7.70;5.15;;;;;;;;;;5035287;28;20029;-82
2021/03/02 12:31:24;;;;;;;;;;;;;;;;;;5036435;28;19909;-80
2021/03/02 12:33:50;;;;;;;;;;;;;;;;;;5031940;28;19967;-79
2021/03/02 12:36:16;;;;;;;;;;;;;;;;;;5032417;28;20274;-81
2021/03/02 12:38:42;;;;;;;;;;;;;;;;;;5032616;28;19957;-80
2021/03/02 12:41:08;;;;;;;;;;;;;;;;;;5032623;28;19929;-80
2021/03/02 12:43:34;;;;;;;;;;;;;;;;;;5032506;28;19905;-80
2021/03/02 12:46:00;;;;;;;;;;;;;;;;;;5014950;28;20267;-80
2021/03/02 12:48:26;;;;;;;;;;;;;;;;;;5015847;28;19905;-79
2021/03/02 12:50:51;;;;;;;;;;;;;;;;;;5011864;28;19948;-79
2021/03/02 12:53:17;;;;;;;;;;;;;;;;;;5011369;28;19909;-79
2021/03/02 12:55:43;;;;;;;;;;;;;;;;;;5012800;28;19929;-80
2021/03/02 12:58:09;;;;;;;;;;;;;;;;;;5013996;28;19932;-79
2021/03/02 13:00:35;;;;;;;;;;;;;;;;;;5013020;28;19912;-79
2021/03/02 13:03:01;;;;;;;;;;;;;;;;;;5012186;28;19970;-78
2021/03/02 13:05:27;;;;;;;;;;;;;;;;;;5010977;28;19916;-79
2021/03/02 13:07:53;;;;;;;;;;;;;;;;;;5011627;28;20425;-78
2021/03/02 13:10:19;;;;;;;;;;;;;;;;;;5011400;28;20359;-79
2021/03/02 13:12:45;;;;;;;;;;;;;;;;;;5011259;28;19910;-78
2021/03/02 13:15:11;;;;;;;;;;;;;;;;;;5010491;28;19913;-78
2021/03/02 13:17:37;;;;;;;;;;;;;;;;;;5011183;28;19912;-80
2021/03/02 13:20:03;;;;;;;;;;;;;;;;;;5015879;28;20274;-79
2021/03/02 13:22:29;;;;;;;;;;;;;;;;;;5030797;28;19905;-78
2021/03/02 13:24:55;;;;;;;;;;;;;;;;;;5030398;28;19905;-78
2021/03/02 13:27:21;;;;;;;;;;;;;;;;;;5030903;28;20416;-78
2021/03/02 13:29:47;;;;;;;;;;;;;;;;;;5030661;28;20102;-79
2021/03/02 13:32:13;;;;;;;;;;;;;;;;;;5030817;28;20366;-79
2021/03/02 13:34:39;;;;;;;;;;;;;;;;;;5030465;28;20332;-79
2021/03/02 13:37:05;;;;;;;;;;;;;;;;;;5030640;28;19937;-79
2021/03/02 13:39:30;;;;;;;;;;;;;;;;;;5030477;28;19998;-79
2021/03/02 13:41:56;;;;;;;;;;;;;;;;;;5030597;28;19947;-78
2021/03/02 13:44:22;;;;;;;;;;;;;;;;;;5030234;28;20454;-79
2021/03/02 13:46:48;;;;;;;;;;;;;;;;;;5030586;28;20016;-79
2021/03/02 13:49:14;;;;;;;;;;;;;;;;;;5030399;28;20487;-79
2021/03/02 13:51:40;;;;;;;;;;;;;;;;;;5030390;28;19967;-79
2021/03/02 13:54:06;;;;;;;;;;;;;;;;;;5030336;28;20418;-79
2021/03/02 13:56:32;;;;;;;;;;;;;;;;;;5030379;28;19952;-79
2021/03/02 13:58:58;;;;;;;;;;;;;;;;;;5029474;28;19913;-79
2021/03/02 14:01:24;;;;;;;;;;;;;;;;;;5030454;28;19928;-78
2021/03/02 14:03:51;;;;;;;;;;;;;;;;;;5030279;28;19983;-78
2021/03/02 14:06:17;;;;;;;;;;;;;;;;;;5030402;28;20000;-78
2021/03/02 14:08:43;;;;;;;;;;;;;;;;;;5030638;28;19975;-79
2021/03/02 14:11:09;;;;;;;;;;;;;;;;;;5030291;28;19905;-79
2021/03/02 14:13:35;;;;;;;;;;;;;;;;;;5030462;28;19924;-78
2021/03/02 14:16:05;;;;;;;;;;;;;;;;;;5029975;28;20370;-78
2021/03/02 14:18:31;;;;;;;;;;;;;;;;;;5029945;28;19912;-78
2021/03/02 14:20:58;;;;;;;;;;;;;;;;;;5017746;28;19905;-78
2021/03/02 14:23:24;;;;;;;;;;;;;;;;;;5026937;28;20350;-79
2021/03/02 14:25:50;;;;;;;;;;;;;;;;;;5026544;28;19964;-78
2021/03/02 14:28:16;;;;;;;;;;;;;;;;;;5026801;28;20000;-80
2021/03/02 14:30:42;;;;;;;;;;;;;;;;;;5026592;28;20013;-80
2021/03/02 14:33:07;;;;;;;;;;;;;;;;;;5026838;28;19916;-79
2021/03/02 14:35:33;;;;;;;;;;;;;;;;;;5026489;28;20359;-78
2021/03/02 14:38:00;;;;;;;;;;;;;;;;;;5026875;28;20381;-78
2021/03/02 14:40:26;;;;;;;;;;;;;;;;;;5026465;28;19905;-79
2021/03/02 14:42:52;;;;;;;;;;;;;;;;;;5026796;28;19912;-78
2021/03/02 14:45:21;;;;;;;;;;;;;;;;;;5026297;28;20309;-79
2021/03/02 14:47:47;;;;;;;;;;;;;;;;;;5026711;28;19984;-78
2021/03/02 14:50:14;;;;;;;;;;;;;;;;;;5026532;28;20007;-78
2021/03/02 14:52:40;;;;;;;;;;;;;;;;;;5026495;28;19916;-78
2021/03/02 14:55:06;;;;;;;;;;;;;;;;;;5026471;28;19905;-79
2021/03/02 14:57:31;;;;;;;;;;;;;;;;;;5011313;28;20394;-78
2021/03/02 14:59:57;;;;;;;;;;;;;;;;;;5026587;28;19916;-78
2021/03/02 15:02:23;;;;;;;;;;;;;;;;;;5026534;28;19913;-78
2021/03/02 15:04:49;;;;;;;;;;;;;;;;;;5026338;28;19909;-78
2021/03/02 15:07:15;;;;;;;;;;;;;;;;;;5026594;28;20370;-78
2021/03/02 15:09:41;;;;;;;;;;;;;;;;;;5028277;28;19952;-78
2021/03/02 15:12:07;;;;;;;;;;;;;;;;;;5030256;28;19909;-79
2021/03/02 15:14:33;;;;;;;;;;;;;;;;;;5029807;28;20322;-78
2021/03/02 15:16:59;;;;;;;;;;;;;;;;;;5030389;28;19928;-79
2021/03/02 15:19:25;;;;;;;;;;;;;;;;;;5031577;28;19912;-78
2021/03/02 15:21:51;;;;;;;;;;;;;;;;;;5050218;28;19905;-78
2021/03/02 15:24:17;;;;;;;;;;;;;;;;;;5033120;28;19938;-79
2021/03/02 15:26:43;;;;;;;;;;;;;;;;;;5033888;28;19905;-80
2021/03/02 15:29:09;;;;;;;;;;;;;;;;;;5033666;28;19912;-78
2021/03/02 15:31:35;;;;;;;;;;;;;;;;;;5033371;28;19905;-79
2021/03/02 15:34:01;;;;;;;;;;;;;;;;;;5033107;28;20059;-78
2021/03/02 15:36:27;;;;;;;;;;;;;;;;;;5033135;28;19912;-79
2021/03/02 15:38:53;;;;;;;;;;;;;;;;;;5033700;28;19905;-80
2021/03/02 15:41:19;;;;;;;;;;;;;;;;;;5033118;28;19999;-79
2021/03/02 15:43:45;;;;;;;;;;;;;;;;;;5033212;28;19931;-78
2021/03/02 15:46:11;;;;;;;;;;;;;;;;;;5032748;28;19908;-79
2021/03/02 15:48:37;;;;;;;;;;;;;;;;;;5032851;28;19912;-78
2021/03/02 15:51:03;;;;;;;;;;;;;;;;;;5032590;28;19905;-79